Station PAUA2 - ST PAUL MXAK, AK Image indicating link to RSS feed of recent meteorological observations for station PAUA2


Conditions at PAUA2 as of
2345 GMT on 06/20/2024:
     

Click on the graph icon in the table below to see a time series plot of the last five days of that observation.

5-day plot - Wind Direction Wind Direction (WDIR):ESE ( 110 deg true )
5-day plot - Wind Speed Wind Speed (WSPD): 6.0 kts
5-day plot - Wind Gust Wind Gust (GST): 8.0 kts
5-day plot - Air Temperature Air Temperature (ATMP): 45.3 °F
5-day plot - Dew Point Dew Point (DEWP): 44.6 °F
5-day plot - Wind Chill Wind Chill (CHILL): 41.5 °F
5-day plot - Wind Speed at 10 Meters Wind Speed at 10 meters (WSPD10M): 5.8 kts
5-day plot - Wind Speed at 20 Meters Wind Speed at 20 meters (WSPD20M): 5.8 kts
5-day plot -  Wind Speed, Wind Gust and Atmospheric Pressure Combined plot of Wind Speed, Gust, and Air Pressure
Previous observations
TIME
(GMT)
5-day plot - Wind Direction
WDIR
 
5-day plot - Wind Speed
WSPD
kts
5-day plot - Wind Gust
GST
kts
5-day plot - Wave Height
WVHT
ft
5-day plot - Dominant Wave Period
DPD
sec
5-day plot - Average Wave Period
APD
sec
5-day plot - Mean Wave Direction
MWD
 
5-day plot - Atmospheric Pressure
PRES
in
5-day plot - Pressure Tendency
PTDY
in
5-day plot - Air Temperature
ATMP
°F
5-day plot - Water Temperature
WTMP
°F
5-day plot - Dew Point
DEWP
°F
5-day plot - Salinity
SAL
psu
5-day plot - Visibility
VIS
nmi
5-day plot - Tide (above MLLW)
TIDE
ft
2024-06-20 2335ESE 6.0 8.0------ 45.5- 44.2---
2024-06-20 2325ESE 5.1 7.0------ 46.0- 44.4---
2024-06-20 2315 E 5.1 7.0------ 44.2- 44.1---
2024-06-20 2305 E 7.0 8.9------ 44.1- 43.9---
2024-06-20 2255 E 6.0 8.0------ 44.4- 44.2---
2024-06-20 2246 E 5.1 7.0------ 44.2- 44.1---
2024-06-20 2235 E 6.0 8.0------ 45.5- 44.8---
2024-06-20 2225 E 6.0 8.0------ 45.0- 45.0---
2024-06-20 2215 E 6.0 8.0------ 45.0- 44.8---
2024-06-20 2205 E 7.0 8.0------ 44.1- 44.1---
2024-06-20 2155 E 6.0 8.0------ 44.2- 44.2---
2024-06-20 2145ESE 6.0 8.0------ 44.8- 44.4---
2024-06-20 2135ESE 6.0 8.0------ 46.0- 44.8---
2024-06-20 2125ESE 5.1 7.0------ 46.4- 45.1---
2024-06-20 2115ESE 4.1 6.0------ 46.9- 45.5---
2024-06-20 2055 E 4.1 6.0------ 48.2- 46.8---
2024-06-20 2045 E 5.1 6.0------ 46.2- 46.0---
2024-06-20 2035 E 5.1 6.0------ 44.6- 44.6---
2024-06-20 2015 E 6.0 7.0------ 43.5- 43.5---
2024-06-20 2005 E 7.0 8.0------ 42.8- 42.8---
2024-06-20 1945 E 6.0 7.0------ 42.6- 42.6---
2024-06-20 1935 E 6.0 7.0------ 42.1- 42.1---
2024-06-20 1925 E 6.0 8.0------ 41.7- 41.7---
2024-06-20 1915ESE 7.0 8.0------ 41.7- 41.7---
2024-06-20 1905 E 7.0 8.0------ 41.2- 41.2---
2024-06-20 1855 E 6.0 8.0------ 41.0- 41.0---
2024-06-20 1845 E 5.1 7.0------ 41.7- 41.7---
2024-06-20 1835 E 4.1 5.1------ 41.2- 41.2---
2024-06-20 1825 E 2.9 5.1------ 41.2- 41.2---
2024-06-20 1815 E 2.9 5.1------ 42.8- 42.8---
2024-06-20 1805 NE 4.1 5.1------ 43.3- 43.3---
2024-06-20 1755ENE 4.1 5.1------ 42.4- 42.4---
2024-06-20 1745ENE 4.1 6.0------ 42.1- 42.1---
2024-06-20 1735ENE 6.0 8.0------ 41.9- 41.9---
2024-06-20 1725 E 6.0 8.0------ 41.7- 41.7---
2024-06-20 1715 E 6.0 8.0------ 41.5- 41.5---
2024-06-20 1705ENE 5.1 6.0------ 41.9- 41.9---
2024-06-20 1655ENE 4.1 6.0------ 42.4- 42.4---
2024-06-20 1645ENE 4.1 6.0------ 43.0- 43.0---
2024-06-20 1635ENE 4.1 6.0------ 42.6- 42.6---
2024-06-20 1626 NE 4.1 5.1------ 42.6- 42.6---
2024-06-20 1615ENE 5.1 6.0------ 42.4- 42.4---
2024-06-20 1605 NE 4.1 5.1------ 42.1- 42.1---
2024-06-20 1555 NE 4.1 5.1------ 41.9- 41.9---
2024-06-20 1545 NE 2.9 5.1------ 41.9- 41.9---
2024-06-20 1535 NE 4.1 6.0------ 41.5- 41.5---
2024-06-20 1525ENE 6.0 7.0------ 41.4- 41.4---
2024-06-20 1515ENE 6.0 7.0------ 41.2- 41.2---
2024-06-20 1505ENE 6.0 8.0------ 41.2- 41.2---
2024-06-20 1455ENE 6.0 7.0------ 41.0- 41.0---
2024-06-20 1445ENE 5.1 7.0------ 40.8- 40.8---
2024-06-20 1435 E 4.1 5.1------ 41.2- 41.2---
2024-06-20 1425ENE 4.1 5.1------ 41.4- 41.4---
2024-06-20 1415ENE 5.1 6.0------ 41.4- 41.4---
2024-06-20 1405ENE 5.1 6.0------ 41.5- 41.5---
2024-06-20 1355ENE 5.1 5.1------ 41.5- 41.5---
2024-06-20 1345ENE 4.1 5.1------ 41.5- 41.5---
2024-06-20 1335 NE 5.1 6.0------ 41.4- 41.4---
2024-06-20 1325 NE 5.1 6.0------ 41.0- 41.0---
2024-06-20 1305ENE 5.1 6.0------ 41.2- 41.2---
2024-06-20 1255ENE 5.1 6.0------ 41.2- 41.2---
2024-06-20 1245ENE 5.1 6.0------ 41.4- 41.4---
2024-06-20 1235ENE 5.1 6.0------ 41.4- 41.4---
2024-06-20 1225ENE 4.1 5.1------ 41.5- 41.5---
2024-06-20 1215ENE 4.1 5.1------ 41.5- 41.5---
2024-06-20 1205 NE 4.1 5.1------ 41.5- 41.5---
2024-06-20 1155 NE 4.1 6.0------ 41.4- 41.4---
2024-06-20 1145 NE 5.1 6.0------ 41.4- 41.4---
2024-06-20 1135ENE 5.1 6.0------ 41.2- 41.2---
2024-06-20 1125ENE 5.1 7.0------ 41.0- 41.0---
2024-06-20 1115ENE 5.1 7.0------ 41.0- 41.0---
2024-06-20 1105 E 6.0 8.0------ 41.2- 41.2---
2024-06-20 1055 E 6.0 7.0------ 41.2- 41.2---
2024-06-20 1045ENE 6.0 8.0------ 41.2- 41.2---
2024-06-20 1035ENE 7.0 8.0------ 41.0- 41.0---
2024-06-20 1025ENE 7.0 8.0------ 40.8- 40.8---
2024-06-20 1015ENE 6.0 7.0------ 40.8- 40.8---
2024-06-20 1005ENE 5.1 7.0------ 40.8- 40.8---
2024-06-20 0955ENE 7.0 8.0------ 40.8- 40.8---
2024-06-20 0945ENE 7.0 8.9------ 40.8- 40.8---
2024-06-20 0935ENE 7.0 8.9------ 41.2- 41.2---
2024-06-20 0925ENE 8.0 9.9------ 41.4- 41.4---
2024-06-20 0905 E 8.0 9.9------ 42.1- 42.1---
2024-06-20 0855ENE 8.0 9.9------ 42.3- 42.3---
2024-06-20 0845ENE 8.0 9.9------ 42.3- 42.3---
2024-06-20 0835ENE 7.0 8.0------ 42.4- 42.4---
2024-06-20 0825ENE 5.1 7.0------ 42.4- 42.4---
2024-06-20 0816ENE 4.1 6.0------ 42.4- 42.4---
2024-06-20 0805 E 6.0 8.9------ 42.6- 42.6---
2024-06-20 0755ENE 7.0 8.9------ 43.0- 43.0---
2024-06-20 0745ENE 8.0 8.9------ 43.2- 43.2---
2024-06-20 0735ENE 7.0 8.9------ 43.2- 43.2---
2024-06-20 0725ENE 7.0 8.9------ 43.2- 43.2---
2024-06-20 0715 E 8.0 8.9------ 43.2- 43.2---
2024-06-20 0705 E 7.0 8.0------ 43.5- 43.5---
2024-06-20 0655ENE 6.0 7.0------ 43.7- 43.7---
2024-06-20 0645ENE 7.0 8.9------ 43.7- 43.7---
2024-06-20 0635ENE 7.0 8.9------ 43.9- 43.9---
2024-06-20 0625ENE 8.0 9.9------ 43.9- 43.9---
2024-06-20 0615ENE 8.0 9.9------ 43.9- 43.9---
2024-06-20 0605ENE 8.0 9.9------ 43.7- 43.7---
2024-06-20 0555 E 8.0 9.9------ 43.7- 43.7---
2024-06-20 0545 E 8.0 8.9------ 43.9- 43.9---
2024-06-20 0535 E 8.0 8.9------ 43.9- 43.9---
2024-06-20 0525 E 8.0 8.9------ 43.7- 43.7---
2024-06-20 0515ENE 7.0 8.9------ 44.1- 44.1---
2024-06-20 0505 E 8.0 8.9------ 43.9- 43.9---
2024-06-20 0455 E 8.0 9.9------ 43.9- 43.9---
2024-06-20 0445 E 8.0 8.9------ 44.2- 44.2---
2024-06-20 0435 E 8.0 8.9------ 44.4- 44.4---
2024-06-20 0425 E 7.0 8.9------ 44.6- 44.6---
2024-06-20 0415 E 7.0 8.9------ 44.6- 44.4---
2024-06-20 0405 E 8.0 9.9------ 44.8- 44.6---
2024-06-20 0355 E 8.0 8.9------ 45.1- 44.8---
2024-06-20 0345 E 8.0 8.9------ 45.1- 44.8---
2024-06-20 0335 E 7.0 8.0------ 45.0- 44.8---
2024-06-20 0325 E 7.0 8.0------ 45.1- 44.8---
2024-06-20 0315 E 6.0 7.0------ 45.5- 45.1---
2024-06-20 0305 E 6.0 8.0------ 45.7- 45.3---
2024-06-20 0255 E 6.0 8.0------ 46.0- 45.3---
2024-06-20 0245 E 6.0 8.0------ 45.7- 45.0---
2024-06-20 0235 E 7.0 8.9------ 45.1- 44.8---
2024-06-20 0225 E 7.0 8.9------ 44.4- 44.4---
2024-06-20 0215 E 7.0 8.9------ 44.2- 44.1---
2024-06-20 0205 E 7.0 8.0------ 44.1- 43.9---
2024-06-20 0155 E 7.0 9.9------ 44.2- 43.9---
2024-06-20 0145 E 7.0 8.9------ 44.2- 44.1---
2024-06-20 0135 E 7.0 8.9------ 44.2- 44.1---
2024-06-20 0125 E 8.0 9.9------ 44.1- 43.7---
2024-06-20 0115 E 7.0 11.1------ 44.4- 43.7---
2024-06-20 0105 E 8.9 11.1------ 44.8- 44.1---
2024-06-20 0055 E 8.9 11.1------ 44.8- 44.1---
2024-06-20 0045 E 9.9 12.0------ 45.1- 44.2---
2024-06-20 0035 E 9.9 12.0------ 45.3- 44.4---
2024-06-20 0025 E 8.9 12.0------ 45.1- 44.2---
2024-06-20 0015 E 8.9 11.1------ 45.5- 44.4---
2024-06-19 2355 E 8.9 11.1------ 45.3- 44.2---